This is the latest recevied weather packets stored in our database for station/object OK1TOM-6. If no packets are shown the sender has not sent any weather packets the latest 10 day(s).
| Time | Temp. | Humidity | Pressure | Rain* | Wind** | Luminosity | Snow |
|---|---|---|---|---|---|---|---|
| 1777449942 | 8.33° C | 39% | 1027.2 hPa | 0 mm | - | - | - |
| 1777449338 | 8.33° C | 39% | 1027 hPa | 0 mm | - | - | - |
| 1777448735 | 7.78° C | 38% | 1026.8 hPa | 0 mm | - | - | - |
| 1777448131 | 7.22° C | 39% | 1026.9 hPa | 0 mm | - | - | - |
| 1777447528 | 7.78° C | 39% | 1026.8 hPa | 0 mm | - | - | - |
| 1777446925 | 7.78° C | 40% | 1026.7 hPa | 0 mm | - | - | - |
| 1777446321 | 7.22° C | 39% | 1026.7 hPa | 0 mm | - | - | - |
| 1777445718 | 7.22° C | 39% | 1026.6 hPa | 0 mm | - | - | - |
| 1777445174 | 7.22° C | 39% | 1026.4 hPa | 0 mm | - | - | - |
| 1777444571 | 7.22° C | 39% | 1026.4 hPa | 0 mm | - | - | - |
| 1777443967 | 7.22° C | 40% | 1026.3 hPa | 0 mm | - | - | - |
| 1777443364 | 6.67° C | 41% | 1026.3 hPa | 0 mm | - | - | - |
| 1777442761 | 6.11° C | 43% | 1026.2 hPa | 0 mm | - | - | - |
| 1777442157 | 5.56° C | 44% | 1026.2 hPa | 0 mm | - | - | - |
| 1777441554 | 5° C | 45% | 1026.2 hPa | 0 mm | - | - | - |
| 1777440951 | 4.44° C | 50% | 1026.2 hPa | 0 mm | - | - | - |
| 1777440347 | 2.78° C | 55% | 1026.1 hPa | 0 mm | - | - | - |
| 1777439744 | 2.22° C | 61% | 1026 hPa | 0 mm | - | - | - |
| 1777439140 | 1.11° C | 64% | 1026 hPa | 0 mm | - | - | - |
| 1777438537 | 0.56° C | 66% | 1026 hPa | 0 mm | - | - | - |
| 1777437934 | -0.56° C | 68% | 1026 hPa | 0 mm | - | - | - |
| 1777437330 | -0.56° C | 69% | 1025.9 hPa | 0 mm | - | - | - |
| 1777436726 | -1.11° C | 71% | 1025.8 hPa | 0 mm | - | - | - |
| 1777436123 | -1.11° C | 72% | 1025.7 hPa | 0 mm | - | - | - |
| 1777435519 | -1.67° C | 73% | 1025.7 hPa | 0 mm | - | - | - |
* Rain latest hour (hover to see other rain measurements)
** Current wind speed in m/s (hover to see current wind gust speed)